sensor_id;sensor_type;location;lat;lon;timestamp;P1;durP1;ratioP1;P2;durP2;ratioP2
29006;SDS011;16104;48.642;9.008;2023-08-12T01:03:08;4.95;;;4.15;;
29006;SDS011;16104;48.642;9.008;2023-08-12T01:08:04;5.05;;;4.32;;
29006;SDS011;16104;48.642;9.008;2023-08-12T02:04:03;4.75;;;3.97;;
29006;SDS011;16104;48.642;9.008;2023-08-12T02:08:58;9.27;;;4.22;;
29006;SDS011;16104;48.642;9.008;2023-08-12T02:13:54;5.57;;;3.78;;
29006;SDS011;16104;48.642;9.008;2023-08-12T03:04:57;5.97;;;4.05;;
29006;SDS011;16104;48.642;9.008;2023-08-12T03:09:53;4.68;;;4.13;;
29006;SDS011;16104;48.642;9.008;2023-08-12T03:14:50;5.63;;;4.05;;
29006;SDS011;16104;48.642;9.008;2023-08-12T03:19:46;5.00;;;4.10;;
29006;SDS011;16104;48.642;9.008;2023-08-12T03:24:41;5.88;;;4.00;;
29006;SDS011;16104;48.642;9.008;2023-08-12T03:29:37;5.35;;;4.60;;
29006;SDS011;16104;48.642;9.008;2023-08-12T03:34:32;4.28;;;3.88;;
29006;SDS011;16104;48.642;9.008;2023-08-12T03:39:28;4.93;;;4.38;;
29006;SDS011;16104;48.642;9.008;2023-08-12T03:44:23;5.72;;;4.03;;
29006;SDS011;16104;48.642;9.008;2023-08-12T03:49:19;7.20;;;4.43;;
29006;SDS011;16104;48.642;9.008;2023-08-12T03:54:14;5.30;;;4.32;;
29006;SDS011;16104;48.642;9.008;2023-08-12T03:59:10;5.03;;;4.00;;
29006;SDS011;16104;48.642;9.008;2023-08-12T04:04:06;4.72;;;3.65;;
29006;SDS011;16104;48.642;9.008;2023-08-12T04:09:01;4.22;;;3.78;;
29006;SDS011;16104;48.642;9.008;2023-08-12T04:13:57;6.05;;;4.50;;
29006;SDS011;16104;48.642;9.008;2023-08-12T04:18:52;6.35;;;4.13;;
29006;SDS011;16104;48.642;9.008;2023-08-12T04:23:48;6.63;;;4.43;;
29006;SDS011;16104;48.642;9.008;2023-08-12T04:28:43;6.55;;;4.45;;
29006;SDS011;16104;48.642;9.008;2023-08-12T04:33:39;5.82;;;4.32;;
29006;SDS011;16104;48.642;9.008;2023-08-12T04:38:34;4.85;;;4.43;;
29006;SDS011;16104;48.642;9.008;2023-08-12T04:43:30;4.47;;;4.00;;
29006;SDS011;16104;48.642;9.008;2023-08-12T04:48:25;4.70;;;3.97;;
29006;SDS011;16104;48.642;9.008;2023-08-12T04:53:21;6.35;;;4.10;;
29006;SDS011;16104;48.642;9.008;2023-08-12T04:58:16;4.68;;;4.28;;
29006;SDS011;16104;48.642;9.008;2023-08-12T05:03:12;5.95;;;4.40;;
29006;SDS011;16104;48.642;9.008;2023-08-12T05:08:07;5.82;;;3.92;;
29006;SDS011;16104;48.642;9.008;2023-08-12T05:13:03;4.75;;;3.80;;
29006;SDS011;16104;48.642;9.008;2023-08-12T05:17:58;4.65;;;4.00;;
29006;SDS011;16104;48.642;9.008;2023-08-12T05:22:54;5.88;;;4.10;;
29006;SDS011;16104;48.642;9.008;2023-08-12T05:27:50;5.47;;;4.60;;
29006;SDS011;16104;48.642;9.008;2023-08-12T05:32:45;7.00;;;4.35;;
29006;SDS011;16104;48.642;9.008;2023-08-12T05:37:41;5.28;;;4.35;;
29006;SDS011;16104;48.642;9.008;2023-08-12T05:42:36;4.68;;;4.18;;
29006;SDS011;16104;48.642;9.008;2023-08-12T05:47:32;5.13;;;4.28;;
29006;SDS011;16104;48.642;9.008;2023-08-12T05:52:28;4.18;;;3.78;;
29006;SDS011;16104;48.642;9.008;2023-08-12T05:57:23;4.43;;;4.00;;
29006;SDS011;16104;48.642;9.008;2023-08-12T06:02:19;7.53;;;4.80;;
29006;SDS011;16104;48.642;9.008;2023-08-12T06:07:14;5.32;;;4.53;;
29006;SDS011;16104;48.642;9.008;2023-08-12T06:12:10;4.53;;;4.03;;
29006;SDS011;16104;48.642;9.008;2023-08-12T06:17:05;5.13;;;3.92;;
29006;SDS011;16104;48.642;9.008;2023-08-12T06:22:01;6.03;;;4.28;;
29006;SDS011;16104;48.642;9.008;2023-08-12T06:26:58;4.45;;;4.05;;
29006;SDS011;16104;48.642;9.008;2023-08-12T06:31:54;6.20;;;4.40;;
29006;SDS011;16104;48.642;9.008;2023-08-12T06:36:50;5.70;;;4.68;;
29006;SDS011;16104;48.642;9.008;2023-08-12T06:41:45;6.78;;;4.30;;
29006;SDS011;16104;48.642;9.008;2023-08-12T06:46:41;7.05;;;4.93;;
29006;SDS011;16104;48.642;9.008;2023-08-12T06:51:36;5.38;;;4.40;;
29006;SDS011;16104;48.642;9.008;2023-08-12T06:56:32;3.83;;;3.38;;
29006;SDS011;16104;48.642;9.008;2023-08-12T07:01:27;3.65;;;3.35;;
29006;SDS011;16104;48.642;9.008;2023-08-12T07:06:23;6.03;;;3.78;;
29006;SDS011;16104;48.642;9.008;2023-08-12T07:11:18;7.82;;;3.40;;
29006;SDS011;16104;48.642;9.008;2023-08-12T07:16:14;4.20;;;3.58;;
29006;SDS011;16104;48.642;9.008;2023-08-12T07:21:09;4.00;;;3.35;;
29006;SDS011;16104;48.642;9.008;2023-08-12T07:26:05;3.67;;;3.30;;
29006;SDS011;16104;48.642;9.008;2023-08-12T07:31:01;3.63;;;3.22;;
29006;SDS011;16104;48.642;9.008;2023-08-12T07:35:57;5.20;;;3.42;;
29006;SDS011;16104;48.642;9.008;2023-08-12T07:40:53;4.07;;;3.22;;
29006;SDS011;16104;48.642;9.008;2023-08-12T07:45:52;5.38;;;3.30;;
29006;SDS011;16104;48.642;9.008;2023-08-12T07:50:54;3.33;;;2.88;;
29006;SDS011;16104;48.642;9.008;2023-08-12T07:55:53;5.68;;;2.90;;
29006;SDS011;16104;48.642;9.008;2023-08-12T08:00:52;5.55;;;3.40;;
29006;SDS011;16104;48.642;9.008;2023-08-12T08:05:48;3.72;;;2.83;;
29006;SDS011;16104;48.642;9.008;2023-08-12T08:10:44;8.15;;;3.15;;
29006;SDS011;16104;48.642;9.008;2023-08-12T08:15:39;4.72;;;3.35;;
29006;SDS011;16104;48.642;9.008;2023-08-12T08:20:35;3.92;;;3.10;;
29006;SDS011;16104;48.642;9.008;2023-08-12T08:25:30;3.90;;;2.90;;
29006;SDS011;16104;48.642;9.008;2023-08-12T08:30:27;4.60;;;2.97;;
29006;SDS011;16104;48.642;9.008;2023-08-12T08:35:23;3.83;;;3.40;;
29006;SDS011;16104;48.642;9.008;2023-08-12T08:40:18;3.20;;;2.90;;
29006;SDS011;16104;48.642;9.008;2023-08-12T08:45:14;5.47;;;3.08;;
29006;SDS011;16104;48.642;9.008;2023-08-12T08:50:10;4.57;;;3.13;;
29006;SDS011;16104;48.642;9.008;2023-08-12T08:55:07;4.75;;;3.00;;
29006;SDS011;16104;48.642;9.008;2023-08-12T09:00:03;7.60;;;3.22;;
29006;SDS011;16104;48.642;9.008;2023-08-12T09:05:02;3.95;;;3.00;;
29006;SDS011;16104;48.642;9.008;2023-08-12T09:09:59;2.90;;;2.70;;
29006;SDS011;16104;48.642;9.008;2023-08-12T09:14:55;5.35;;;2.70;;
29006;SDS011;16104;48.642;9.008;2023-08-12T09:19:51;5.00;;;2.75;;
29006;SDS011;16104;48.642;9.008;2023-08-12T09:24:49;3.90;;;3.50;;
29006;SDS011;16104;48.642;9.008;2023-08-12T09:29:45;5.22;;;3.40;;
29006;SDS011;16104;48.642;9.008;2023-08-12T09:34:50;4.20;;;3.20;;
29006;SDS011;16104;48.642;9.008;2023-08-12T09:39:50;4.22;;;3.25;;
29006;SDS011;16104;48.642;9.008;2023-08-12T09:44:46;5.10;;;3.88;;
29006;SDS011;16104;48.642;9.008;2023-08-12T09:49:42;3.63;;;3.13;;
29006;SDS011;16104;48.642;9.008;2023-08-12T09:54:37;6.28;;;3.30;;
29006;SDS011;16104;48.642;9.008;2023-08-12T09:59:34;7.85;;;3.00;;
29006;SDS011;16104;48.642;9.008;2023-08-12T10:04:48;3.15;;;2.70;;
29006;SDS011;16104;48.642;9.008;2023-08-12T10:09:48;5.23;;;3.27;;
29006;SDS011;16104;48.642;9.008;2023-08-12T10:14:44;3.15;;;2.85;;
29006;SDS011;16104;48.642;9.008;2023-08-12T10:19:45;3.50;;;3.17;;
29006;SDS011;16104;48.642;9.008;2023-08-12T10:24:42;5.25;;;3.25;;
29006;SDS011;16104;48.642;9.008;2023-08-12T10:29:41;4.53;;;3.13;;
29006;SDS011;16104;48.642;9.008;2023-08-12T10:34:38;5.13;;;3.40;;
29006;SDS011;16104;48.642;9.008;2023-08-12T10:39:34;3.47;;;2.90;;
29006;SDS011;16104;48.642;9.008;2023-08-12T10:44:40;3.92;;;3.13;;
29006;SDS011;16104;48.642;9.008;2023-08-12T10:49:49;3.47;;;3.13;;
29006;SDS011;16104;48.642;9.008;2023-08-12T10:54:47;8.95;;;3.65;;
29006;SDS011;16104;48.642;9.008;2023-08-12T11:09:37;2.78;;;2.47;;
29006;SDS011;16104;48.642;9.008;2023-08-12T11:14:33;4.82;;;2.97;;
29006;SDS011;16104;48.642;9.008;2023-08-12T11:19:42;5.70;;;3.00;;
29006;SDS011;16104;48.642;9.008;2023-08-12T11:24:41;3.63;;;3.30;;
29006;SDS011;16104;48.642;9.008;2023-08-12T11:29:38;3.70;;;2.60;;
29006;SDS011;16104;48.642;9.008;2023-08-12T11:34:34;5.47;;;2.72;;
29006;SDS011;16104;48.642;9.008;2023-08-12T11:39:29;7.07;;;2.72;;
29006;SDS011;16104;48.642;9.008;2023-08-12T11:44:25;2.80;;;2.50;;
29006;SDS011;16104;48.642;9.008;2023-08-12T11:49:20;3.72;;;2.50;;
29006;SDS011;16104;48.642;9.008;2023-08-12T11:54:16;4.65;;;2.45;;
29006;SDS011;16104;48.642;9.008;2023-08-12T11:59:11;6.35;;;2.83;;
29006;SDS011;16104;48.642;9.008;2023-08-12T12:04:07;5.35;;;2.45;;
29006;SDS011;16104;48.642;9.008;2023-08-12T12:09:06;5.28;;;3.03;;
29006;SDS011;16104;48.642;9.008;2023-08-12T12:14:05;4.82;;;3.00;;
29006;SDS011;16104;48.642;9.008;2023-08-12T12:19:02;2.72;;;2.22;;
29006;SDS011;16104;48.642;9.008;2023-08-12T12:23:58;9.82;;;2.83;;
29006;SDS011;16104;48.642;9.008;2023-08-12T12:28:54;11.95;;;3.45;;
29006;SDS011;16104;48.642;9.008;2023-08-12T12:33:49;4.13;;;2.70;;
29006;SDS011;16104;48.642;9.008;2023-08-12T12:38:45;5.88;;;2.60;;
29006;SDS011;16104;48.642;9.008;2023-08-12T12:43:40;5.80;;;2.75;;
29006;SDS011;16104;48.642;9.008;2023-08-12T12:48:36;7.25;;;3.05;;
29006;SDS011;16104;48.642;9.008;2023-08-12T12:53:31;6.60;;;2.80;;
29006;SDS011;16104;48.642;9.008;2023-08-12T12:58:27;8.18;;;3.42;;
29006;SDS011;16104;48.642;9.008;2023-08-12T13:03:22;5.43;;;2.85;;
29006;SDS011;16104;48.642;9.008;2023-08-12T13:08:18;3.30;;;2.55;;
29006;SDS011;16104;48.642;9.008;2023-08-12T13:13:14;4.82;;;2.92;;
29006;SDS011;16104;48.642;9.008;2023-08-12T13:18:13;5.93;;;2.97;;
29006;SDS011;16104;48.642;9.008;2023-08-12T13:23:08;4.75;;;3.03;;
29006;SDS011;16104;48.642;9.008;2023-08-12T13:28:04;5.50;;;3.03;;
29006;SDS011;16104;48.642;9.008;2023-08-12T13:33:00;5.97;;;2.78;;
29006;SDS011;16104;48.642;9.008;2023-08-12T13:37:55;2.63;;;2.20;;
29006;SDS011;16104;48.642;9.008;2023-08-12T13:42:51;3.58;;;1.95;;
29006;SDS011;16104;48.642;9.008;2023-08-12T13:47:46;5.15;;;1.88;;
29006;SDS011;16104;48.642;9.008;2023-08-12T13:52:42;2.65;;;1.45;;
29006;SDS011;16104;48.642;9.008;2023-08-12T13:57:37;2.20;;;1.55;;
29006;SDS011;16104;48.642;9.008;2023-08-12T14:02:33;4.95;;;1.80;;
29006;SDS011;16104;48.642;9.008;2023-08-12T14:07:28;1.65;;;1.35;;
29006;SDS011;16104;48.642;9.008;2023-08-12T14:12:25;4.15;;;1.67;;
29006;SDS011;16104;48.642;9.008;2023-08-12T14:17:21;2.22;;;1.50;;
29006;SDS011;16104;48.642;9.008;2023-08-12T14:22:18;3.05;;;1.52;;
29006;SDS011;16104;48.642;9.008;2023-08-12T14:27:14;2.08;;;1.65;;
29006;SDS011;16104;48.642;9.008;2023-08-12T14:32:12;1.55;;;1.45;;
29006;SDS011;16104;48.642;9.008;2023-08-12T14:37:07;2.58;;;1.77;;
29006;SDS011;16104;48.642;9.008;2023-08-12T14:42:03;1.77;;;1.52;;
29006;SDS011;16104;48.642;9.008;2023-08-12T14:46:59;1.80;;;1.30;;
29006;SDS011;16104;48.642;9.008;2023-08-12T14:51:55;2.80;;;1.50;;
29006;SDS011;16104;48.642;9.008;2023-08-12T14:56:51;2.13;;;1.40;;
29006;SDS011;16104;48.642;9.008;2023-08-12T15:01:47;2.57;;;1.50;;
29006;SDS011;16104;48.642;9.008;2023-08-12T15:06:42;2.40;;;1.77;;
29006;SDS011;16104;48.642;9.008;2023-08-12T15:11:38;1.95;;;1.75;;
29006;SDS011;16104;48.642;9.008;2023-08-12T15:16:33;2.10;;;1.90;;
29006;SDS011;16104;48.642;9.008;2023-08-12T15:21:29;1.90;;;1.80;;
29006;SDS011;16104;48.642;9.008;2023-08-12T15:26:25;1.95;;;1.80;;
29006;SDS011;16104;48.642;9.008;2023-08-12T15:31:20;3.75;;;2.30;;
29006;SDS011;16104;48.642;9.008;2023-08-12T15:36:16;2.83;;;2.63;;
29006;SDS011;16104;48.642;9.008;2023-08-12T15:41:12;2.90;;;2.05;;
29006;SDS011;16104;48.642;9.008;2023-08-12T15:46:09;3.03;;;2.05;;
29006;SDS011;16104;48.642;9.008;2023-08-12T15:51:04;3.85;;;2.10;;
29006;SDS011;16104;48.642;9.008;2023-08-12T15:56:00;5.18;;;2.78;;
29006;SDS011;16104;48.642;9.008;2023-08-12T16:00:55;3.08;;;2.70;;
29006;SDS011;16104;48.642;9.008;2023-08-12T16:05:51;4.25;;;2.80;;
29006;SDS011;16104;48.642;9.008;2023-08-12T16:10:53;3.22;;;2.92;;
29006;SDS011;16104;48.642;9.008;2023-08-12T16:15:48;4.57;;;3.67;;
29006;SDS011;16104;48.642;9.008;2023-08-12T16:20:44;5.57;;;2.97;;
29006;SDS011;16104;48.642;9.008;2023-08-12T16:25:39;5.68;;;3.28;;
29006;SDS011;16104;48.642;9.008;2023-08-12T16:30:35;5.93;;;3.20;;
29006;SDS011;16104;48.642;9.008;2023-08-12T16:35:31;6.35;;;3.45;;
29006;SDS011;16104;48.642;9.008;2023-08-12T16:40:26;5.93;;;3.63;;
29006;SDS011;16104;48.642;9.008;2023-08-12T16:45:25;10.50;;;3.92;;
29006;SDS011;16104;48.642;9.008;2023-08-12T16:50:20;5.90;;;3.75;;
29006;SDS011;16104;48.642;9.008;2023-08-12T16:55:16;4.75;;;4.00;;
29006;SDS011;16104;48.642;9.008;2023-08-12T17:00:12;5.05;;;3.60;;
29006;SDS011;16104;48.642;9.008;2023-08-12T17:05:08;4.47;;;4.07;;
29006;SDS011;16104;48.642;9.008;2023-08-12T17:10:04;5.63;;;3.60;;
29006;SDS011;16104;48.642;9.008;2023-08-12T17:14:59;5.38;;;3.95;;
29006;SDS011;16104;48.642;9.008;2023-08-12T17:19:55;4.97;;;3.67;;
29006;SDS011;16104;48.642;9.008;2023-08-12T17:24:50;4.07;;;3.45;;
29006;SDS011;16104;48.642;9.008;2023-08-12T17:29:46;4.03;;;3.53;;
29006;SDS011;16104;48.642;9.008;2023-08-12T17:34:41;5.57;;;3.50;;
29006;SDS011;16104;48.642;9.008;2023-08-12T17:39:38;4.15;;;3.05;;
29006;SDS011;16104;48.642;9.008;2023-08-12T17:44:33;5.13;;;3.30;;
29006;SDS011;16104;48.642;9.008;2023-08-12T17:49:29;3.80;;;3.42;;
29006;SDS011;16104;48.642;9.008;2023-08-12T17:54:24;6.10;;;3.70;;
29006;SDS011;16104;48.642;9.008;2023-08-12T17:59:23;4.30;;;3.20;;
29006;SDS011;16104;48.642;9.008;2023-08-12T18:04:19;4.47;;;3.47;;
29006;SDS011;16104;48.642;9.008;2023-08-12T18:09:15;5.78;;;3.60;;
29006;SDS011;16104;48.642;9.008;2023-08-12T18:14:12;4.03;;;3.40;;
29006;SDS011;16104;48.642;9.008;2023-08-12T18:19:09;3.72;;;3.40;;
29006;SDS011;16104;48.642;9.008;2023-08-12T18:24:04;3.90;;;3.40;;
29006;SDS011;16104;48.642;9.008;2023-08-12T18:29:00;6.47;;;3.05;;
29006;SDS011;16104;48.642;9.008;2023-08-12T18:33:56;4.90;;;4.20;;
29006;SDS011;16104;48.642;9.008;2023-08-12T18:38:51;5.05;;;4.55;;
29006;SDS011;16104;48.642;9.008;2023-08-12T18:43:47;4.28;;;3.88;;
29006;SDS011;16104;48.642;9.008;2023-08-12T18:48:42;3.75;;;3.35;;
29006;SDS011;16104;48.642;9.008;2023-08-12T18:53:38;4.38;;;3.42;;
29006;SDS011;16104;48.642;9.008;2023-08-12T18:58:33;5.15;;;3.85;;
29006;SDS011;16104;48.642;9.008;2023-08-12T19:03:29;5.13;;;4.03;;
29006;SDS011;16104;48.642;9.008;2023-08-12T19:08:25;4.57;;;3.90;;
29006;SDS011;16104;48.642;9.008;2023-08-12T19:13:21;4.43;;;3.88;;
29006;SDS011;16104;48.642;9.008;2023-08-12T19:18:17;5.35;;;4.35;;
29006;SDS011;16104;48.642;9.008;2023-08-12T19:23:12;4.95;;;3.83;;
29006;SDS011;16104;48.642;9.008;2023-08-12T19:28:09;6.50;;;4.40;;
29006;SDS011;16104;48.642;9.008;2023-08-12T19:33:04;5.55;;;4.28;;
29006;SDS011;16104;48.642;9.008;2023-08-12T19:38:00;4.97;;;4.13;;
29006;SDS011;16104;48.642;9.008;2023-08-12T19:42:55;4.97;;;3.63;;
29006;SDS011;16104;48.642;9.008;2023-08-12T19:47:51;5.15;;;3.80;;
29006;SDS011;16104;48.642;9.008;2023-08-12T19:52:46;3.40;;;3.10;;
29006;SDS011;16104;48.642;9.008;2023-08-12T19:57:42;4.28;;;3.88;;
29006;SDS011;16104;48.642;9.008;2023-08-12T20:02:38;4.45;;;3.20;;
29006;SDS011;16104;48.642;9.008;2023-08-12T20:07:33;7.15;;;3.30;;
29006;SDS011;16104;48.642;9.008;2023-08-12T20:12:29;4.57;;;3.08;;
29006;SDS011;16104;48.642;9.008;2023-08-12T20:17:24;4.65;;;3.03;;
29006;SDS011;16104;48.642;9.008;2023-08-12T20:22:20;5.05;;;3.00;;
29006;SDS011;16104;48.642;9.008;2023-08-12T20:27:17;4.05;;;3.08;;
29006;SDS011;16104;48.642;9.008;2023-08-12T20:32:13;3.30;;;2.40;;
29006;SDS011;16104;48.642;9.008;2023-08-12T20:37:08;4.18;;;2.50;;
29006;SDS011;16104;48.642;9.008;2023-08-12T20:42:04;4.55;;;2.30;;
29006;SDS011;16104;48.642;9.008;2023-08-12T20:47:00;4.00;;;2.58;;
29006;SDS011;16104;48.642;9.008;2023-08-12T20:51:55;3.80;;;2.65;;
29006;SDS011;16104;48.642;9.008;2023-08-12T20:56:51;3.83;;;3.22;;
29006;SDS011;16104;48.642;9.008;2023-08-12T21:01:46;4.65;;;2.83;;
29006;SDS011;16104;48.642;9.008;2023-08-12T21:06:42;4.13;;;2.45;;
29006;SDS011;16104;48.642;9.008;2023-08-12T21:11:38;4.00;;;2.33;;
29006;SDS011;16104;48.642;9.008;2023-08-12T21:16:34;3.13;;;2.33;;
29006;SDS011;16104;48.642;9.008;2023-08-12T21:21:29;3.67;;;2.20;;
29006;SDS011;16104;48.642;9.008;2023-08-12T21:26:25;2.75;;;2.00;;
29006;SDS011;16104;48.642;9.008;2023-08-12T21:31:20;2.90;;;2.13;;
29006;SDS011;16104;48.642;9.008;2023-08-12T21:36:15;4.13;;;2.63;;
29006;SDS011;16104;48.642;9.008;2023-08-12T21:41:11;2.90;;;2.35;;
29006;SDS011;16104;48.642;9.008;2023-08-12T21:46:06;3.60;;;2.45;;
29006;SDS011;16104;48.642;9.008;2023-08-12T21:51:02;5.72;;;2.58;;
29006;SDS011;16104;48.642;9.008;2023-08-12T21:55:57;7.95;;;3.10;;
29006;SDS011;16104;48.642;9.008;2023-08-12T22:00:54;3.17;;;2.45;;
29006;SDS011;16104;48.642;9.008;2023-08-12T22:05:51;4.90;;;2.70;;
29006;SDS011;16104;48.642;9.008;2023-08-12T22:10:46;4.07;;;2.60;;
29006;SDS011;16104;48.642;9.008;2023-08-12T22:15:42;3.33;;;2.35;;
29006;SDS011;16104;48.642;9.008;2023-08-12T22:20:38;3.40;;;2.30;;
29006;SDS011;16104;48.642;9.008;2023-08-12T22:25:33;3.63;;;2.47;;
29006;SDS011;16104;48.642;9.008;2023-08-12T22:30:29;3.67;;;2.33;;
29006;SDS011;16104;48.642;9.008;2023-08-12T22:35:24;5.32;;;2.75;;
29006;SDS011;16104;48.642;9.008;2023-08-12T22:40:20;3.55;;;2.65;;
29006;SDS011;16104;48.642;9.008;2023-08-12T22:45:15;3.58;;;2.40;;
29006;SDS011;16104;48.642;9.008;2023-08-12T22:50:11;3.33;;;2.67;;
29006;SDS011;16104;48.642;9.008;2023-08-12T22:55:07;5.65;;;2.35;;
29006;SDS011;16104;48.642;9.008;2023-08-12T23:00:03;18.48;;;2.80;;
29006;SDS011;16104;48.642;9.008;2023-08-12T23:05:01;5.10;;;2.50;;
29006;SDS011;16104;48.642;9.008;2023-08-12T23:09:57;2.38;;;2.17;;
29006;SDS011;16104;48.642;9.008;2023-08-12T23:14:53;3.35;;;2.17;;
29006;SDS011;16104;48.642;9.008;2023-08-12T23:19:49;4.18;;;2.85;;
29006;SDS011;16104;48.642;9.008;2023-08-12T23:24:45;3.45;;;2.50;;
29006;SDS011;16104;48.642;9.008;2023-08-12T23:29:40;3.72;;;2.70;;
29006;SDS011;16104;48.642;9.008;2023-08-12T23:34:36;3.47;;;2.53;;
29006;SDS011;16104;48.642;9.008;2023-08-12T23:39:31;4.15;;;2.65;;
29006;SDS011;16104;48.642;9.008;2023-08-12T23:44:27;4.85;;;2.67;;
29006;SDS011;16104;48.642;9.008;2023-08-12T23:49:22;2.67;;;2.30;;
29006;SDS011;16104;48.642;9.008;2023-08-12T23:54:18;9.00;;;3.08;;
29006;SDS011;16104;48.642;9.008;2023-08-12T23:59:13;4.55;;;3.42;;
